sensor_id;sensor_type;location;lat;lon;timestamp;temperature;humidity
56076;DHT22;41951;49.022;12.066;2024-01-16T00:00:32;-0.30;99.90
56076;DHT22;41951;49.022;12.066;2024-01-16T00:02:58;-0.30;99.90
56076;DHT22;41951;49.022;12.066;2024-01-16T00:05:23;-0.30;99.90
56076;DHT22;41951;49.022;12.066;2024-01-16T00:07:49;-0.30;99.90
56076;DHT22;41951;49.022;12.066;2024-01-16T00:10:14;-0.30;99.90
56076;DHT22;41951;49.022;12.066;2024-01-16T00:12:41;-0.30;99.90
56076;DHT22;41951;49.022;12.066;2024-01-16T00:15:07;-0.40;99.90
56076;DHT22;41951;49.022;12.066;2024-01-16T00:17:34;-0.30;99.90
56076;DHT22;41951;49.022;12.066;2024-01-16T00:20:00;-0.30;99.90
56076;DHT22;41951;49.022;12.066;2024-01-16T00:22:29;-0.20;99.90
56076;DHT22;41951;49.022;12.066;2024-01-16T00:24:55;-0.30;99.90
56076;DHT22;41951;49.022;12.066;2024-01-16T00:27:21;-0.30;99.90
56076;DHT22;41951;49.022;12.066;2024-01-16T00:29:46;-0.30;99.90
56076;DHT22;41951;49.022;12.066;2024-01-16T00:32:12;-0.30;99.90
56076;DHT22;41951;49.022;12.066;2024-01-16T00:34:41;-0.30;99.90
56076;DHT22;41951;49.022;12.066;2024-01-16T00:37:07;-0.30;99.90
56076;DHT22;41951;49.022;12.066;2024-01-16T00:39:33;-0.30;99.90
56076;DHT22;41951;49.022;12.066;2024-01-16T00:41:58;-0.20;99.90
56076;DHT22;41951;49.022;12.066;2024-01-16T00:44:24;-0.20;99.90
56076;DHT22;41951;49.022;12.066;2024-01-16T00:46:50;-0.30;99.90
56076;DHT22;41951;49.022;12.066;2024-01-16T00:49:15;-0.30;99.90
56076;DHT22;41951;49.022;12.066;2024-01-16T00:51:41;-0.20;99.90
56076;DHT22;41951;49.022;12.066;2024-01-16T00:54:07;-0.20;99.90
56076;DHT22;41951;49.022;12.066;2024-01-16T00:56:34;-0.20;99.90
56076;DHT22;41951;49.022;12.066;2024-01-16T00:59:00;-0.20;99.90
56076;DHT22;41951;49.022;12.066;2024-01-16T01:01:25;-0.20;99.90
56076;DHT22;41951;49.022;12.066;2024-01-16T01:03:51;-0.20;99.90
56076;DHT22;41951;49.022;12.066;2024-01-16T01:06:17;-0.20;99.90
56076;DHT22;41951;49.022;12.066;2024-01-16T01:08:43;-0.20;99.90
56076;DHT22;41951;49.022;12.066;2024-01-16T01:11:08;-0.20;99.90
56076;DHT22;41951;49.022;12.066;2024-01-16T01:13:34;-0.20;99.90
56076;DHT22;41951;49.022;12.066;2024-01-16T01:15:59;-0.20;99.90
56076;DHT22;41951;49.022;12.066;2024-01-16T01:18:26;-0.20;99.90
56076;DHT22;41951;49.022;12.066;2024-01-16T01:20:51;-0.20;99.90
56076;DHT22;41951;49.022;12.066;2024-01-16T01:23:17;-0.20;99.90
56076;DHT22;41951;49.022;12.066;2024-01-16T01:25:42;-0.30;99.90
56076;DHT22;41951;49.022;12.066;2024-01-16T01:28:08;-0.20;99.90
56076;DHT22;41951;49.022;12.066;2024-01-16T01:30:34;-0.30;99.90
56076;DHT22;41951;49.022;12.066;2024-01-16T01:32:59;-0.30;99.90
56076;DHT22;41951;49.022;12.066;2024-01-16T01:35:25;-0.30;99.90
56076;DHT22;41951;49.022;12.066;2024-01-16T01:37:51;-0.30;99.90
56076;DHT22;41951;49.022;12.066;2024-01-16T01:40:16;-0.30;99.90
56076;DHT22;41951;49.022;12.066;2024-01-16T01:42:42;-0.30;99.90
56076;DHT22;41951;49.022;12.066;2024-01-16T01:45:11;-0.30;99.90
56076;DHT22;41951;49.022;12.066;2024-01-16T01:47:39;-0.30;99.90
56076;DHT22;41951;49.022;12.066;2024-01-16T01:50:06;-0.30;99.90
56076;DHT22;41951;49.022;12.066;2024-01-16T01:52:32;-0.30;99.90
56076;DHT22;41951;49.022;12.066;2024-01-16T01:54:59;-0.30;99.90
56076;DHT22;41951;49.022;12.066;2024-01-16T01:57:24;-0.30;99.90
56076;DHT22;41951;49.022;12.066;2024-01-16T01:59:50;-0.30;99.90
56076;DHT22;41951;49.022;12.066;2024-01-16T02:02:17;-0.30;99.90
56076;DHT22;41951;49.022;12.066;2024-01-16T02:04:43;-0.30;99.90
56076;DHT22;41951;49.022;12.066;2024-01-16T02:07:10;-0.40;99.90
56076;DHT22;41951;49.022;12.066;2024-01-16T02:09:35;-0.30;99.90
56076;DHT22;41951;49.022;12.066;2024-01-16T02:12:01;-0.40;99.90
56076;DHT22;41951;49.022;12.066;2024-01-16T02:14:27;-0.40;99.90
56076;DHT22;41951;49.022;12.066;2024-01-16T02:16:53;-0.40;99.90
56076;DHT22;41951;49.022;12.066;2024-01-16T02:19:18;-0.40;99.90
56076;DHT22;41951;49.022;12.066;2024-01-16T02:21:47;-0.40;99.90
56076;DHT22;41951;49.022;12.066;2024-01-16T02:24:15;-0.40;99.90
56076;DHT22;41951;49.022;12.066;2024-01-16T02:26:41;-0.40;99.90
56076;DHT22;41951;49.022;12.066;2024-01-16T02:29:07;-0.40;99.90
56076;DHT22;41951;49.022;12.066;2024-01-16T02:31:33;-0.40;99.90
56076;DHT22;41951;49.022;12.066;2024-01-16T02:33:59;-0.40;99.90
56076;DHT22;41951;49.022;12.066;2024-01-16T02:36:25;-0.40;99.90
56076;DHT22;41951;49.022;12.066;2024-01-16T02:38:51;-0.50;99.90
56076;DHT22;41951;49.022;12.066;2024-01-16T02:41:17;-0.50;99.90
56076;DHT22;41951;49.022;12.066;2024-01-16T02:43:43;-0.50;99.90
56076;DHT22;41951;49.022;12.066;2024-01-16T02:46:08;-0.50;99.90
56076;DHT22;41951;49.022;12.066;2024-01-16T02:48:35;-0.50;99.90
56076;DHT22;41951;49.022;12.066;2024-01-16T02:51:01;-0.50;99.90
56076;DHT22;41951;49.022;12.066;2024-01-16T02:53:26;-0.50;99.90
56076;DHT22;41951;49.022;12.066;2024-01-16T02:55:54;-0.50;99.90
56076;DHT22;41951;49.022;12.066;2024-01-16T02:58:20;-0.50;99.90
56076;DHT22;41951;49.022;12.066;2024-01-16T03:00:46;-0.50;99.90
56076;DHT22;41951;49.022;12.066;2024-01-16T03:03:12;-0.50;99.90
56076;DHT22;41951;49.022;12.066;2024-01-16T03:05:38;-0.50;99.90
56076;DHT22;41951;49.022;12.066;2024-01-16T03:08:03;-0.40;99.90
56076;DHT22;41951;49.022;12.066;2024-01-16T03:10:29;-0.50;99.90
56076;DHT22;41951;49.022;12.066;2024-01-16T03:12:54;-0.50;99.90
56076;DHT22;41951;49.022;12.066;2024-01-16T03:15:20;-0.50;99.90
56076;DHT22;41951;49.022;12.066;2024-01-16T03:17:47;-0.60;99.90
56076;DHT22;41951;49.022;12.066;2024-01-16T03:20:12;-0.60;99.90
56076;DHT22;41951;49.022;12.066;2024-01-16T03:22:38;-0.60;99.90
56076;DHT22;41951;49.022;12.066;2024-01-16T03:25:04;-0.60;99.90
56076;DHT22;41951;49.022;12.066;2024-01-16T03:27:30;-0.60;99.90
56076;DHT22;41951;49.022;12.066;2024-01-16T03:29:55;-0.60;99.90
56076;DHT22;41951;49.022;12.066;2024-01-16T03:32:21;-0.50;99.90
56076;DHT22;41951;49.022;12.066;2024-01-16T03:34:47;-0.50;99.90
56076;DHT22;41951;49.022;12.066;2024-01-16T03:37:12;-0.50;99.90
56076;DHT22;41951;49.022;12.066;2024-01-16T03:39:38;-0.50;99.90
56076;DHT22;41951;49.022;12.066;2024-01-16T03:42:03;-0.50;99.90
56076;DHT22;41951;49.022;12.066;2024-01-16T03:44:29;-0.50;99.90
56076;DHT22;41951;49.022;12.066;2024-01-16T03:46:54;-0.50;99.90
56076;DHT22;41951;49.022;12.066;2024-01-16T03:49:20;-0.50;99.90
56076;DHT22;41951;49.022;12.066;2024-01-16T03:51:46;-0.50;99.90
56076;DHT22;41951;49.022;12.066;2024-01-16T03:54:12;-0.50;99.90
56076;DHT22;41951;49.022;12.066;2024-01-16T03:56:39;-0.50;99.90
56076;DHT22;41951;49.022;12.066;2024-01-16T03:59:05;-0.50;99.90
56076;DHT22;41951;49.022;12.066;2024-01-16T04:01:32;-0.50;99.90
56076;DHT22;41951;49.022;12.066;2024-01-16T04:03:57;-0.50;99.90
56076;DHT22;41951;49.022;12.066;2024-01-16T04:06:23;-0.50;99.90
56076;DHT22;41951;49.022;12.066;2024-01-16T04:08:49;-0.50;99.90
56076;DHT22;41951;49.022;12.066;2024-01-16T04:11:15;-0.50;99.90
56076;DHT22;41951;49.022;12.066;2024-01-16T04:13:41;-0.60;99.90
56076;DHT22;41951;49.022;12.066;2024-01-16T04:16:06;-0.60;99.90
56076;DHT22;41951;49.022;12.066;2024-01-16T04:18:40;-0.60;99.90
56076;DHT22;41951;49.022;12.066;2024-01-16T04:21:09;-0.60;99.90
56076;DHT22;41951;49.022;12.066;2024-01-16T04:23:34;-0.60;99.90
56076;DHT22;41951;49.022;12.066;2024-01-16T04:26:00;-0.60;99.90
56076;DHT22;41951;49.022;12.066;2024-01-16T04:28:25;-0.70;99.90
56076;DHT22;41951;49.022;12.066;2024-01-16T04:30:51;-0.70;99.90
56076;DHT22;41951;49.022;12.066;2024-01-16T04:33:17;-0.70;99.90
56076;DHT22;41951;49.022;12.066;2024-01-16T04:35:43;-0.70;99.90
56076;DHT22;41951;49.022;12.066;2024-01-16T04:38:08;-0.70;99.90
56076;DHT22;41951;49.022;12.066;2024-01-16T04:40:34;-0.70;99.90
56076;DHT22;41951;49.022;12.066;2024-01-16T04:43:00;-0.70;99.90
56076;DHT22;41951;49.022;12.066;2024-01-16T04:45:25;-0.70;99.90
56076;DHT22;41951;49.022;12.066;2024-01-16T04:47:51;-0.80;99.90
56076;DHT22;41951;49.022;12.066;2024-01-16T04:50:17;-0.80;99.90
56076;DHT22;41951;49.022;12.066;2024-01-16T04:52:43;-0.80;99.90
56076;DHT22;41951;49.022;12.066;2024-01-16T04:55:09;-0.80;99.90
56076;DHT22;41951;49.022;12.066;2024-01-16T04:57:34;-0.80;99.90
56076;DHT22;41951;49.022;12.066;2024-01-16T05:00:00;-0.80;99.90
56076;DHT22;41951;49.022;12.066;2024-01-16T05:02:25;-0.80;99.90
56076;DHT22;41951;49.022;12.066;2024-01-16T05:04:51;-0.90;99.90
56076;DHT22;41951;49.022;12.066;2024-01-16T05:07:18;-0.80;99.90
56076;DHT22;41951;49.022;12.066;2024-01-16T05:09:46;-0.90;99.90
56076;DHT22;41951;49.022;12.066;2024-01-16T05:12:12;-0.90;99.90
56076;DHT22;41951;49.022;12.066;2024-01-16T05:14:37;-0.90;99.90
56076;DHT22;41951;49.022;12.066;2024-01-16T05:17:03;-1.00;99.90
56076;DHT22;41951;49.022;12.066;2024-01-16T05:19:28;-1.00;99.90
56076;DHT22;41951;49.022;12.066;2024-01-16T05:21:54;-1.00;99.90
56076;DHT22;41951;49.022;12.066;2024-01-16T05:24:20;-1.00;99.90
56076;DHT22;41951;49.022;12.066;2024-01-16T05:26:45;-1.00;99.90
56076;DHT22;41951;49.022;12.066;2024-01-16T05:29:11;-1.00;99.90
56076;DHT22;41951;49.022;12.066;2024-01-16T05:31:41;-1.00;99.90
56076;DHT22;41951;49.022;12.066;2024-01-16T05:34:07;-0.90;99.90
56076;DHT22;41951;49.022;12.066;2024-01-16T05:36:33;-1.00;99.90
56076;DHT22;41951;49.022;12.066;2024-01-16T05:38:58;-1.00;99.90
56076;DHT22;41951;49.022;12.066;2024-01-16T05:41:24;-1.00;99.90
56076;DHT22;41951;49.022;12.066;2024-01-16T05:43:49;-1.00;99.90
56076;DHT22;41951;49.022;12.066;2024-01-16T05:46:15;-1.10;99.90
56076;DHT22;41951;49.022;12.066;2024-01-16T05:48:40;-1.10;99.90
56076;DHT22;41951;49.022;12.066;2024-01-16T05:51:06;-1.20;99.90
56076;DHT22;41951;49.022;12.066;2024-01-16T05:53:31;-1.20;99.90
56076;DHT22;41951;49.022;12.066;2024-01-16T05:55:57;-1.20;99.90
56076;DHT22;41951;49.022;12.066;2024-01-16T05:58:22;-1.20;99.90
56076;DHT22;41951;49.022;12.066;2024-01-16T06:00:48;-1.30;99.90
56076;DHT22;41951;49.022;12.066;2024-01-16T06:03:14;-1.30;99.90
56076;DHT22;41951;49.022;12.066;2024-01-16T06:05:39;-1.30;99.90
56076;DHT22;41951;49.022;12.066;2024-01-16T06:08:06;-1.30;99.90
56076;DHT22;41951;49.022;12.066;2024-01-16T06:10:31;-1.20;99.90
56076;DHT22;41951;49.022;12.066;2024-01-16T06:12:57;-1.30;99.90
56076;DHT22;41951;49.022;12.066;2024-01-16T06:15:22;-1.20;99.90
56076;DHT22;41951;49.022;12.066;2024-01-16T06:17:48;-1.20;99.90
56076;DHT22;41951;49.022;12.066;2024-01-16T06:20:14;-1.30;99.90
56076;DHT22;41951;49.022;12.066;2024-01-16T06:22:40;-1.30;99.90
56076;DHT22;41951;49.022;12.066;2024-01-16T06:25:05;-1.30;99.90
56076;DHT22;41951;49.022;12.066;2024-01-16T06:27:32;-1.30;99.90
56076;DHT22;41951;49.022;12.066;2024-01-16T06:29:58;-1.30;99.90
56076;DHT22;41951;49.022;12.066;2024-01-16T06:32:23;-1.40;99.90
56076;DHT22;41951;49.022;12.066;2024-01-16T06:34:49;-1.40;99.90
56076;DHT22;41951;49.022;12.066;2024-01-16T06:37:14;-1.40;99.90
56076;DHT22;41951;49.022;12.066;2024-01-16T06:39:40;-1.50;99.90
56076;DHT22;41951;49.022;12.066;2024-01-16T06:42:06;-1.50;99.90
56076;DHT22;41951;49.022;12.066;2024-01-16T06:44:31;-1.50;99.90
56076;DHT22;41951;49.022;12.066;2024-01-16T06:46:57;-1.50;99.90
56076;DHT22;41951;49.022;12.066;2024-01-16T06:49:22;-1.50;99.90
56076;DHT22;41951;49.022;12.066;2024-01-16T06:51:48;-1.50;99.90
56076;DHT22;41951;49.022;12.066;2024-01-16T06:54:13;-1.50;99.90
56076;DHT22;41951;49.022;12.066;2024-01-16T06:56:39;-1.50;99.90
56076;DHT22;41951;49.022;12.066;2024-01-16T06:59:05;-1.50;99.90
56076;DHT22;41951;49.022;12.066;2024-01-16T07:01:30;-1.60;99.90
56076;DHT22;41951;49.022;12.066;2024-01-16T07:03:56;-1.60;99.90
56076;DHT22;41951;49.022;12.066;2024-01-16T07:06:21;-1.60;99.90
56076;DHT22;41951;49.022;12.066;2024-01-16T07:08:47;-1.60;99.90
56076;DHT22;41951;49.022;12.066;2024-01-16T07:11:13;-1.60;99.90
56076;DHT22;41951;49.022;12.066;2024-01-16T07:13:43;-1.60;99.90
56076;DHT22;41951;49.022;12.066;2024-01-16T07:16:11;-1.60;99.90
56076;DHT22;41951;49.022;12.066;2024-01-16T07:18:38;-1.50;99.90
56076;DHT22;41951;49.022;12.066;2024-01-16T07:21:04;-1.60;99.90
56076;DHT22;41951;49.022;12.066;2024-01-16T07:23:29;-1.60;99.90
56076;DHT22;41951;49.022;12.066;2024-01-16T07:25:55;-1.60;99.90
56076;DHT22;41951;49.022;12.066;2024-01-16T07:28:21;-1.60;99.90
56076;DHT22;41951;49.022;12.066;2024-01-16T07:30:47;-1.60;99.90
56076;DHT22;41951;49.022;12.066;2024-01-16T07:33:13;-1.70;99.90
56076;DHT22;41951;49.022;12.066;2024-01-16T07:35:39;-1.70;99.90
56076;DHT22;41951;49.022;12.066;2024-01-16T07:38:06;-1.70;99.90
56076;DHT22;41951;49.022;12.066;2024-01-16T07:40:32;-1.70;99.90
56076;DHT22;41951;49.022;12.066;2024-01-16T07:42:58;-1.60;99.90
56076;DHT22;41951;49.022;12.066;2024-01-16T07:45:24;-1.60;99.90
56076;DHT22;41951;49.022;12.066;2024-01-16T07:47:49;-1.60;99.90
56076;DHT22;41951;49.022;12.066;2024-01-16T07:50:15;-1.60;99.90
56076;DHT22;41951;49.022;12.066;2024-01-16T07:52:40;-1.70;99.90
56076;DHT22;41951;49.022;12.066;2024-01-16T07:55:06;-1.60;99.90
56076;DHT22;41951;49.022;12.066;2024-01-16T07:57:32;-1.60;99.90
56076;DHT22;41951;49.022;12.066;2024-01-16T07:59:58;-1.60;99.90
56076;DHT22;41951;49.022;12.066;2024-01-16T08:02:30;-1.70;99.90
56076;DHT22;41951;49.022;12.066;2024-01-16T08:04:57;-1.60;99.90
56076;DHT22;41951;49.022;12.066;2024-01-16T08:07:22;-1.60;99.90
56076;DHT22;41951;49.022;12.066;2024-01-16T08:09:48;-1.60;99.90
56076;DHT22;41951;49.022;12.066;2024-01-16T08:12:13;-1.60;99.90
56076;DHT22;41951;49.022;12.066;2024-01-16T08:14:39;-1.60;99.90
56076;DHT22;41951;49.022;12.066;2024-01-16T08:17:04;-1.60;99.90
56076;DHT22;41951;49.022;12.066;2024-01-16T08:19:30;-1.50;99.90
56076;DHT22;41951;49.022;12.066;2024-01-16T08:21:56;-1.50;99.90
56076;DHT22;41951;49.022;12.066;2024-01-16T08:24:22;-1.50;99.90
56076;DHT22;41951;49.022;12.066;2024-01-16T08:26:48;-1.50;99.90
56076;DHT22;41951;49.022;12.066;2024-01-16T08:29:13;-1.50;99.90
56076;DHT22;41951;49.022;12.066;2024-01-16T08:31:40;-1.50;99.90
56076;DHT22;41951;49.022;12.066;2024-01-16T08:34:05;-1.50;99.90
56076;DHT22;41951;49.022;12.066;2024-01-16T08:36:31;-1.50;99.90
56076;DHT22;41951;49.022;12.066;2024-01-16T08:38:56;-1.50;99.90
56076;DHT22;41951;49.022;12.066;2024-01-16T08:41:22;-1.40;99.90
56076;DHT22;41951;49.022;12.066;2024-01-16T08:43:48;-1.40;99.90
56076;DHT22;41951;49.022;12.066;2024-01-16T08:46:14;-1.50;99.90
56076;DHT22;41951;49.022;12.066;2024-01-16T08:48:40;-1.40;99.90
56076;DHT22;41951;49.022;12.066;2024-01-16T08:51:08;-1.30;99.90
56076;DHT22;41951;49.022;12.066;2024-01-16T08:53:37;-1.20;99.90
56076;DHT22;41951;49.022;12.066;2024-01-16T08:56:03;-1.20;99.90
56076;DHT22;41951;49.022;12.066;2024-01-16T08:58:28;-1.10;99.90
56076;DHT22;41951;49.022;12.066;2024-01-16T09:00:54;-1.10;99.90
56076;DHT22;41951;49.022;12.066;2024-01-16T09:03:19;-1.10;99.90
56076;DHT22;41951;49.022;12.066;2024-01-16T09:05:45;-1.10;99.90
56076;DHT22;41951;49.022;12.066;2024-01-16T09:08:10;-1.20;99.90
56076;DHT22;41951;49.022;12.066;2024-01-16T09:10:37;-1.10;99.90
56076;DHT22;41951;49.022;12.066;2024-01-16T09:13:02;-1.10;99.90
56076;DHT22;41951;49.022;12.066;2024-01-16T09:15:28;-1.10;99.90
56076;DHT22;41951;49.022;12.066;2024-01-16T09:17:54;-1.00;99.90
56076;DHT22;41951;49.022;12.066;2024-01-16T09:20:19;-1.00;99.90
56076;DHT22;41951;49.022;12.066;2024-01-16T09:22:45;-0.90;99.90
56076;DHT22;41951;49.022;12.066;2024-01-16T09:25:11;-0.90;99.90
56076;DHT22;41951;49.022;12.066;2024-01-16T09:27:36;-0.80;99.90
56076;DHT22;41951;49.022;12.066;2024-01-16T09:30:03;-0.70;99.90
56076;DHT22;41951;49.022;12.066;2024-01-16T09:32:29;-0.70;99.90
56076;DHT22;41951;49.022;12.066;2024-01-16T09:34:55;-0.70;99.90
56076;DHT22;41951;49.022;12.066;2024-01-16T09:37:20;-0.60;99.90
56076;DHT22;41951;49.022;12.066;2024-01-16T09:39:46;-0.60;99.90
56076;DHT22;41951;49.022;12.066;2024-01-16T09:42:11;-0.50;99.90
56076;DHT22;41951;49.022;12.066;2024-01-16T09:44:37;-0.40;99.90
56076;DHT22;41951;49.022;12.066;2024-01-16T09:47:03;-0.30;99.90
56076;DHT22;41951;49.022;12.066;2024-01-16T09:49:30;-0.20;99.90
56076;DHT22;41951;49.022;12.066;2024-01-16T09:51:56;-0.30;99.90
56076;DHT22;41951;49.022;12.066;2024-01-16T09:54:24;-0.20;99.90
56076;DHT22;41951;49.022;12.066;2024-01-16T09:56:53;-0.10;99.90
56076;DHT22;41951;49.022;12.066;2024-01-16T09:59:20;0.00;99.90
56076;DHT22;41951;49.022;12.066;2024-01-16T10:01:48;-0.10;99.90
56076;DHT22;41951;49.022;12.066;2024-01-16T10:04:15;-0.10;99.90
56076;DHT22;41951;49.022;12.066;2024-01-16T10:06:41;-0.10;99.90
56076;DHT22;41951;49.022;12.066;2024-01-16T10:09:10;0.00;99.90
56076;DHT22;41951;49.022;12.066;2024-01-16T10:11:37;0.00;99.90
56076;DHT22;41951;49.022;12.066;2024-01-16T10:14:03;-0.10;99.90
56076;DHT22;41951;49.022;12.066;2024-01-16T10:17:01;-0.20;99.90
56076;DHT22;41951;49.022;12.066;2024-01-16T10:19:49;-0.30;99.90
56076;DHT22;41951;49.022;12.066;2024-01-16T10:22:20;-0.20;99.90
56076;DHT22;41951;49.022;12.066;2024-01-16T10:24:46;-0.10;99.90
56076;DHT22;41951;49.022;12.066;2024-01-16T10:27:15;-0.10;99.90
56076;DHT22;41951;49.022;12.066;2024-01-16T10:29:55;0.00;99.90
56076;DHT22;41951;49.022;12.066;2024-01-16T10:32:29;0.00;99.90
56076;DHT22;41951;49.022;12.066;2024-01-16T10:35:22;0.00;99.90
56076;DHT22;41951;49.022;12.066;2024-01-16T10:37:49;0.00;99.90
56076;DHT22;41951;49.022;12.066;2024-01-16T10:40:22;-0.10;99.90
56076;DHT22;41951;49.022;12.066;2024-01-16T10:43:00;0.00;99.90
56076;DHT22;41951;49.022;12.066;2024-01-16T10:45:26;0.10;99.90
56076;DHT22;41951;49.022;12.066;2024-01-16T10:48:05;0.00;99.90
56076;DHT22;41951;49.022;12.066;2024-01-16T10:50:32;0.10;99.90
56076;DHT22;41951;49.022;12.066;2024-01-16T10:53:05;0.10;99.90
56076;DHT22;41951;49.022;12.066;2024-01-16T10:55:38;0.10;99.90
56076;DHT22;41951;49.022;12.066;2024-01-16T10:58:07;0.10;99.90
56076;DHT22;41951;49.022;12.066;2024-01-16T11:00:35;0.20;99.90
56076;DHT22;41951;49.022;12.066;2024-01-16T11:03:11;0.20;99.90
56076;DHT22;41951;49.022;12.066;2024-01-16T11:05:41;0.20;99.90
56076;DHT22;41951;49.022;12.066;2024-01-16T11:08:08;0.20;99.90
56076;DHT22;41951;49.022;12.066;2024-01-16T11:10:35;0.30;99.90
56076;DHT22;41951;49.022;12.066;2024-01-16T11:13:02;0.30;99.90
56076;DHT22;41951;49.022;12.066;2024-01-16T11:15:31;0.30;99.90
56076;DHT22;41951;49.022;12.066;2024-01-16T11:17:58;0.40;99.90
56076;DHT22;41951;49.022;12.066;2024-01-16T11:20:25;0.30;99.90
56076;DHT22;41951;49.022;12.066;2024-01-16T11:22:52;0.30;99.90
56076;DHT22;41951;49.022;12.066;2024-01-16T11:25:31;0.30;99.90
56076;DHT22;41951;49.022;12.066;2024-01-16T11:28:11;0.30;99.90
56076;DHT22;41951;49.022;12.066;2024-01-16T11:30:37;0.30;99.90
56076;DHT22;41951;49.022;12.066;2024-01-16T11:33:03;0.30;99.90
56076;DHT22;41951;49.022;12.066;2024-01-16T11:35:34;0.30;99.90
56076;DHT22;41951;49.022;12.066;2024-01-16T11:38:15;0.30;99.90
56076;DHT22;41951;49.022;12.066;2024-01-16T11:40:41;0.40;99.90
56076;DHT22;41951;49.022;12.066;2024-01-16T11:46:01;0.30;99.90
56076;DHT22;41951;49.022;12.066;2024-01-16T11:48:27;0.30;99.90
56076;DHT22;41951;49.022;12.066;2024-01-16T11:50:53;0.30;99.90
56076;DHT22;41951;49.022;12.066;2024-01-16T11:53:32;0.30;99.90
56076;DHT22;41951;49.022;12.066;2024-01-16T12:01:53;0.50;99.90
56076;DHT22;41951;49.022;12.066;2024-01-16T12:04:22;0.50;99.90
56076;DHT22;41951;49.022;12.066;2024-01-16T12:06:58;0.50;99.90
56076;DHT22;41951;49.022;12.066;2024-01-16T12:09:26;0.50;99.90
56076;DHT22;41951;49.022;12.066;2024-01-16T12:12:00;0.60;99.90
56076;DHT22;41951;49.022;12.066;2024-01-16T12:14:27;0.70;99.90
56076;DHT22;41951;49.022;12.066;2024-01-16T12:16:52;0.80;99.90
56076;DHT22;41951;49.022;12.066;2024-01-16T12:19:18;1.00;99.90
56076;DHT22;41951;49.022;12.066;2024-01-16T12:21:45;1.10;99.90
56076;DHT22;41951;49.022;12.066;2024-01-16T12:24:11;1.20;99.90
56076;DHT22;41951;49.022;12.066;2024-01-16T12:26:37;1.20;99.90
56076;DHT22;41951;49.022;12.066;2024-01-16T12:29:04;1.30;99.90
56076;DHT22;41951;49.022;12.066;2024-01-16T12:31:30;1.30;99.90
56076;DHT22;41951;49.022;12.066;2024-01-16T12:34:06;1.30;99.90
56076;DHT22;41951;49.022;12.066;2024-01-16T12:36:33;1.40;99.90
56076;DHT22;41951;49.022;12.066;2024-01-16T12:38:58;1.40;99.90
56076;DHT22;41951;49.022;12.066;2024-01-16T12:41:24;1.50;99.90
56076;DHT22;41951;49.022;12.066;2024-01-16T12:43:51;1.40;99.90
56076;DHT22;41951;49.022;12.066;2024-01-16T12:46:16;1.40;99.90
56076;DHT22;41951;49.022;12.066;2024-01-16T12:48:44;1.50;99.90
56076;DHT22;41951;49.022;12.066;2024-01-16T12:51:13;1.50;99.90
56076;DHT22;41951;49.022;12.066;2024-01-16T12:53:45;1.40;99.90
56076;DHT22;41951;49.022;12.066;2024-01-16T12:56:10;1.40;99.90
56076;DHT22;41951;49.022;12.066;2024-01-16T12:58:37;1.40;99.90
56076;DHT22;41951;49.022;12.066;2024-01-16T13:01:42;1.40;99.90
56076;DHT22;41951;49.022;12.066;2024-01-16T13:04:12;1.40;99.90
56076;DHT22;41951;49.022;12.066;2024-01-16T13:06:39;1.40;99.90
56076;DHT22;41951;49.022;12.066;2024-01-16T13:09:10;1.30;99.90
56076;DHT22;41951;49.022;12.066;2024-01-16T13:14:16;1.30;99.90
56076;DHT22;41951;49.022;12.066;2024-01-16T13:16:41;1.20;99.90
56076;DHT22;41951;49.022;12.066;2024-01-16T13:19:07;1.20;99.90
56076;DHT22;41951;49.022;12.066;2024-01-16T13:21:36;1.20;99.90
56076;DHT22;41951;49.022;12.066;2024-01-16T13:24:03;1.10;99.90
56076;DHT22;41951;49.022;12.066;2024-01-16T13:26:28;1.10;99.90
56076;DHT22;41951;49.022;12.066;2024-01-16T13:28:54;1.10;99.90
56076;DHT22;41951;49.022;12.066;2024-01-16T13:31:19;1.20;99.90
56076;DHT22;41951;49.022;12.066;2024-01-16T13:33:45;1.20;99.90
56076;DHT22;41951;49.022;12.066;2024-01-16T13:36:10;1.30;99.90
56076;DHT22;41951;49.022;12.066;2024-01-16T13:38:37;1.30;99.90
56076;DHT22;41951;49.022;12.066;2024-01-16T13:41:02;1.30;99.90
56076;DHT22;41951;49.022;12.066;2024-01-16T13:43:28;1.30;99.90
56076;DHT22;41951;49.022;12.066;2024-01-16T13:45:54;1.40;99.90
56076;DHT22;41951;49.022;12.066;2024-01-16T13:48:20;1.30;99.90
56076;DHT22;41951;49.022;12.066;2024-01-16T13:50:46;1.40;99.90
56076;DHT22;41951;49.022;12.066;2024-01-16T13:53:12;1.30;99.90
56076;DHT22;41951;49.022;12.066;2024-01-16T13:55:41;1.30;99.90
56076;DHT22;41951;49.022;12.066;2024-01-16T13:58:07;1.30;99.90
56076;DHT22;41951;49.022;12.066;2024-01-16T14:00:33;1.30;99.90
56076;DHT22;41951;49.022;12.066;2024-01-16T14:02:59;1.20;99.90
56076;DHT22;41951;49.022;12.066;2024-01-16T14:05:24;1.20;99.90
56076;DHT22;41951;49.022;12.066;2024-01-16T14:07:52;1.10;99.90
56076;DHT22;41951;49.022;12.066;2024-01-16T14:10:19;1.10;99.90
56076;DHT22;41951;49.022;12.066;2024-01-16T14:12:47;1.10;99.90
56076;DHT22;41951;49.022;12.066;2024-01-16T14:15:14;1.10;99.90
56076;DHT22;41951;49.022;12.066;2024-01-16T14:17:55;1.10;99.90
56076;DHT22;41951;49.022;12.066;2024-01-16T14:20:22;1.00;99.90
56076;DHT22;41951;49.022;12.066;2024-01-16T14:22:52;1.10;99.90
56076;DHT22;41951;49.022;12.066;2024-01-16T14:25:19;1.10;99.90
56076;DHT22;41951;49.022;12.066;2024-01-16T14:27:56;1.10;99.90
56076;DHT22;41951;49.022;12.066;2024-01-16T14:30:25;1.20;99.90
56076;DHT22;41951;49.022;12.066;2024-01-16T14:32:52;1.10;99.90
56076;DHT22;41951;49.022;12.066;2024-01-16T14:35:22;1.20;99.90
56076;DHT22;41951;49.022;12.066;2024-01-16T14:37:52;1.10;99.90
56076;DHT22;41951;49.022;12.066;2024-01-16T14:40:18;1.10;99.90
56076;DHT22;41951;49.022;12.066;2024-01-16T14:42:47;1.10;99.90
56076;DHT22;41951;49.022;12.066;2024-01-16T14:45:22;1.00;99.90
56076;DHT22;41951;49.022;12.066;2024-01-16T14:47:48;1.00;99.90
56076;DHT22;41951;49.022;12.066;2024-01-16T14:50:14;1.00;99.90
56076;DHT22;41951;49.022;12.066;2024-01-16T14:52:42;0.90;99.90
56076;DHT22;41951;49.022;12.066;2024-01-16T14:55:07;1.00;99.90
56076;DHT22;41951;49.022;12.066;2024-01-16T14:57:33;0.90;99.90
56076;DHT22;41951;49.022;12.066;2024-01-16T15:00:10;0.90;99.90
56076;DHT22;41951;49.022;12.066;2024-01-16T15:02:51;0.90;99.90
56076;DHT22;41951;49.022;12.066;2024-01-16T15:05:18;0.90;99.90
56076;DHT22;41951;49.022;12.066;2024-01-16T15:07:44;0.80;99.90
56076;DHT22;41951;49.022;12.066;2024-01-16T15:10:11;0.80;99.90
56076;DHT22;41951;49.022;12.066;2024-01-16T15:12:41;0.80;99.90
56076;DHT22;41951;49.022;12.066;2024-01-16T15:15:07;0.90;99.90
56076;DHT22;41951;49.022;12.066;2024-01-16T15:17:33;0.80;99.90
56076;DHT22;41951;49.022;12.066;2024-01-16T15:19:59;0.90;99.90
56076;DHT22;41951;49.022;12.066;2024-01-16T15:22:25;0.90;99.90
56076;DHT22;41951;49.022;12.066;2024-01-16T15:24:50;0.90;99.90
56076;DHT22;41951;49.022;12.066;2024-01-16T15:27:16;0.90;99.90
56076;DHT22;41951;49.022;12.066;2024-01-16T15:29:42;0.90;99.90